sensor_id;sensor_type;location;lat;lon;timestamp;P1;durP1;ratioP1;P2;durP2;ratioP2
73569;SDS011;61850;54.980;73.298;2022-07-29T00:00:19;13.48;;;9.32;;
73569;SDS011;61850;54.980;73.298;2022-07-29T00:02:46;11.27;;;9.15;;
73569;SDS011;61850;54.980;73.298;2022-07-29T00:05:17;12.55;;;9.10;;
73569;SDS011;61850;54.980;73.298;2022-07-29T00:07:48;11.75;;;9.18;;
73569;SDS011;61850;54.980;73.298;2022-07-29T00:10:19;10.43;;;8.73;;
73569;SDS011;61850;54.980;73.298;2022-07-29T00:12:49;9.52;;;7.88;;
73569;SDS011;61850;54.980;73.298;2022-07-29T00:15:24;11.20;;;8.18;;
73569;SDS011;61850;54.980;73.298;2022-07-29T00:17:51;14.25;;;8.63;;
73569;SDS011;61850;54.980;73.298;2022-07-29T00:43:01;7.85;;;6.13;;
73569;SDS011;61850;54.980;73.298;2022-07-29T00:45:27;8.15;;;5.45;;
73569;SDS011;61850;54.980;73.298;2022-07-29T00:47:55;9.27;;;5.72;;
73569;SDS011;61850;54.980;73.298;2022-07-29T00:50:27;9.18;;;5.57;;
73569;SDS011;61850;54.980;73.298;2022-07-29T00:52:58;6.30;;;4.45;;
73569;SDS011;61850;54.980;73.298;2022-07-29T00:55:36;7.70;;;5.25;;
73569;SDS011;61850;54.980;73.298;2022-07-29T01:46:52;9.63;;;5.82;;
73569;SDS011;61850;54.980;73.298;2022-07-29T01:49:27;8.82;;;5.88;;
73569;SDS011;61850;54.980;73.298;2022-07-29T01:52:03;9.88;;;6.22;;
73569;SDS011;61850;54.980;73.298;2022-07-29T01:57:21;9.77;;;6.60;;
73569;SDS011;61850;54.980;73.298;2022-07-29T01:59:52;10.85;;;7.32;;
73569;SDS011;61850;54.980;73.298;2022-07-29T02:02:19;11.02;;;7.30;;
73569;SDS011;61850;54.980;73.298;2022-07-29T02:04:47;9.35;;;7.55;;
73569;SDS011;61850;54.980;73.298;2022-07-29T02:07:26;10.25;;;7.55;;
73569;SDS011;61850;54.980;73.298;2022-07-29T02:09:58;12.52;;;7.72;;
73569;SDS011;61850;54.980;73.298;2022-07-29T02:12:28;11.68;;;7.80;;
73569;SDS011;61850;54.980;73.298;2022-07-29T02:14:56;11.50;;;7.53;;
73569;SDS011;61850;54.980;73.298;2022-07-29T02:17:39;11.68;;;7.50;;
73569;SDS011;61850;54.980;73.298;2022-07-29T02:20:08;10.35;;;7.65;;
73569;SDS011;61850;54.980;73.298;2022-07-29T02:22:37;9.77;;;7.60;;
73569;SDS011;61850;54.980;73.298;2022-07-29T02:25:16;11.65;;;7.30;;
73569;SDS011;61850;54.980;73.298;2022-07-29T02:27:43;10.77;;;7.55;;
73569;SDS011;61850;54.980;73.298;2022-07-29T02:30:11;11.90;;;7.05;;
73569;SDS011;61850;54.980;73.298;2022-07-29T02:32:39;10.20;;;7.20;;
73569;SDS011;61850;54.980;73.298;2022-07-29T02:35:17;8.73;;;6.47;;
73569;SDS011;61850;54.980;73.298;2022-07-29T02:37:46;9.73;;;7.07;;
73569;SDS011;61850;54.980;73.298;2022-07-29T02:40:33;8.77;;;6.72;;
73569;SDS011;61850;54.980;73.298;2022-07-29T02:43:01;8.57;;;6.63;;
73569;SDS011;61850;54.980;73.298;2022-07-29T02:45:31;9.55;;;6.72;;
73569;SDS011;61850;54.980;73.298;2022-07-29T02:48:05;9.30;;;6.60;;
73569;SDS011;61850;54.980;73.298;2022-07-29T02:50:47;8.73;;;6.20;;
73569;SDS011;61850;54.980;73.298;2022-07-29T02:53:18;8.82;;;6.28;;
73569;SDS011;61850;54.980;73.298;2022-07-29T02:55:57;8.70;;;6.30;;
73569;SDS011;61850;54.980;73.298;2022-07-29T02:58:27;8.65;;;6.05;;
73569;SDS011;61850;54.980;73.298;2022-07-29T03:00:57;10.07;;;6.43;;
73569;SDS011;61850;54.980;73.298;2022-07-29T03:03:28;10.30;;;6.45;;
73569;SDS011;61850;54.980;73.298;2022-07-29T03:05:58;9.30;;;5.75;;
73569;SDS011;61850;54.980;73.298;2022-07-29T03:08:33;8.52;;;6.00;;
73569;SDS011;61850;54.980;73.298;2022-07-29T03:11:00;7.55;;;4.85;;
73569;SDS011;61850;54.980;73.298;2022-07-29T03:13:27;6.70;;;4.78;;
73569;SDS011;61850;54.980;73.298;2022-07-29T03:15:57;6.28;;;4.50;;
73569;SDS011;61850;54.980;73.298;2022-07-29T03:18:26;6.97;;;4.75;;
73569;SDS011;61850;54.980;73.298;2022-07-29T03:20:53;11.65;;;5.20;;
73569;SDS011;61850;54.980;73.298;2022-07-29T03:23:20;6.70;;;5.03;;
73569;SDS011;61850;54.980;73.298;2022-07-29T03:25:48;7.40;;;5.13;;
73569;SDS011;61850;54.980;73.298;2022-07-29T03:28:16;8.45;;;4.90;;
73569;SDS011;61850;54.980;73.298;2022-07-29T03:30:48;8.68;;;4.95;;
73569;SDS011;61850;54.980;73.298;2022-07-29T03:33:15;6.57;;;4.32;;
73569;SDS011;61850;54.980;73.298;2022-07-29T03:35:51;6.40;;;4.30;;
73569;SDS011;61850;54.980;73.298;2022-07-29T03:38:17;6.40;;;4.30;;
73569;SDS011;61850;54.980;73.298;2022-07-29T03:40:46;6.28;;;4.00;;
73569;SDS011;61850;54.980;73.298;2022-07-29T03:43:28;6.15;;;3.90;;
73569;SDS011;61850;54.980;73.298;2022-07-29T03:45:59;6.47;;;3.67;;
73569;SDS011;61850;54.980;73.298;2022-07-29T03:48:27;6.32;;;3.97;;
73569;SDS011;61850;54.980;73.298;2022-07-29T03:51:07;4.90;;;3.67;;
73569;SDS011;61850;54.980;73.298;2022-07-29T03:53:34;5.55;;;3.95;;
73569;SDS011;61850;54.980;73.298;2022-07-29T03:56:02;5.93;;;3.63;;
73569;SDS011;61850;54.980;73.298;2022-07-29T03:58:30;6.97;;;4.05;;
73569;SDS011;61850;54.980;73.298;2022-07-29T04:01:00;6.45;;;3.80;;
73569;SDS011;61850;54.980;73.298;2022-07-29T04:03:37;5.05;;;3.40;;
73569;SDS011;61850;54.980;73.298;2022-07-29T04:06:05;6.28;;;3.20;;
73569;SDS011;61850;54.980;73.298;2022-07-29T04:08:42;4.97;;;3.30;;
73569;SDS011;61850;54.980;73.298;2022-07-29T04:11:13;5.40;;;3.88;;
73569;SDS011;61850;54.980;73.298;2022-07-29T04:13:39;5.45;;;3.92;;
73569;SDS011;61850;54.980;73.298;2022-07-29T04:16:06;6.05;;;4.00;;
73569;SDS011;61850;54.980;73.298;2022-07-29T04:18:32;7.70;;;4.65;;
73569;SDS011;61850;54.980;73.298;2022-07-29T04:20:58;7.47;;;5.47;;
73569;SDS011;61850;54.980;73.298;2022-07-29T04:23:29;8.18;;;6.05;;
73569;SDS011;61850;54.980;73.298;2022-07-29T04:25:59;8.75;;;6.53;;
73569;SDS011;61850;54.980;73.298;2022-07-29T04:28:26;11.48;;;7.13;;
73569;SDS011;61850;54.980;73.298;2022-07-29T04:30:53;12.25;;;8.73;;
73569;SDS011;61850;54.980;73.298;2022-07-29T04:33:19;14.35;;;9.27;;
73569;SDS011;61850;54.980;73.298;2022-07-29T04:35:45;15.40;;;9.73;;
73569;SDS011;61850;54.980;73.298;2022-07-29T04:38:11;13.50;;;10.48;;
73569;SDS011;61850;54.980;73.298;2022-07-29T04:40:37;14.88;;;10.68;;
73569;SDS011;61850;54.980;73.298;2022-07-29T04:43:03;16.08;;;11.07;;
73569;SDS011;61850;54.980;73.298;2022-07-29T04:45:37;16.77;;;12.20;;
73569;SDS011;61850;54.980;73.298;2022-07-29T04:48:03;15.25;;;11.23;;
73569;SDS011;61850;54.980;73.298;2022-07-29T04:50:30;16.40;;;11.23;;
73569;SDS011;61850;54.980;73.298;2022-07-29T04:52:57;15.32;;;11.63;;
73569;SDS011;61850;54.980;73.298;2022-07-29T04:55:33;18.42;;;11.60;;
73569;SDS011;61850;54.980;73.298;2022-07-29T04:58:11;16.13;;;12.65;;
73569;SDS011;61850;54.980;73.298;2022-07-29T05:00:37;17.50;;;13.13;;
73569;SDS011;61850;54.980;73.298;2022-07-29T05:03:15;18.42;;;12.95;;
73569;SDS011;61850;54.980;73.298;2022-07-29T05:05:41;17.23;;;12.38;;
73569;SDS011;61850;54.980;73.298;2022-07-29T05:08:08;21.92;;;12.40;;
73569;SDS011;61850;54.980;73.298;2022-07-29T05:10:34;20.40;;;13.07;;
73569;SDS011;61850;54.980;73.298;2022-07-29T05:13:05;18.40;;;12.65;;
73569;SDS011;61850;54.980;73.298;2022-07-29T05:15:37;16.38;;;12.77;;
73569;SDS011;61850;54.980;73.298;2022-07-29T05:18:04;19.88;;;12.65;;
73569;SDS011;61850;54.980;73.298;2022-07-29T05:20:31;18.60;;;12.85;;
73569;SDS011;61850;54.980;73.298;2022-07-29T05:22:59;17.80;;;12.30;;
73569;SDS011;61850;54.980;73.298;2022-07-29T05:25:27;15.95;;;12.82;;
73569;SDS011;61850;54.980;73.298;2022-07-29T05:27:54;18.38;;;12.05;;
73569;SDS011;61850;54.980;73.298;2022-07-29T05:30:21;16.15;;;11.45;;
73569;SDS011;61850;54.980;73.298;2022-07-29T05:32:52;15.43;;;11.13;;
73569;SDS011;61850;54.980;73.298;2022-07-29T05:35:18;20.05;;;11.05;;
73569;SDS011;61850;54.980;73.298;2022-07-29T05:37:47;17.00;;;11.63;;
73569;SDS011;61850;54.980;73.298;2022-07-29T05:40:13;16.60;;;10.27;;
73569;SDS011;61850;54.980;73.298;2022-07-29T05:42:40;14.93;;;10.68;;
73569;SDS011;61850;54.980;73.298;2022-07-29T05:45:06;15.57;;;10.52;;
73569;SDS011;61850;54.980;73.298;2022-07-29T05:47:34;16.73;;;10.90;;
73569;SDS011;61850;54.980;73.298;2022-07-29T05:50:00;15.05;;;10.55;;
73569;SDS011;61850;54.980;73.298;2022-07-29T05:52:31;13.95;;;9.65;;
73569;SDS011;61850;54.980;73.298;2022-07-29T05:55:01;15.88;;;10.40;;
73569;SDS011;61850;54.980;73.298;2022-07-29T05:57:39;15.05;;;10.30;;
73569;SDS011;61850;54.980;73.298;2022-07-29T06:00:06;13.18;;;10.02;;
73569;SDS011;61850;54.980;73.298;2022-07-29T06:02:42;12.63;;;9.80;;
73569;SDS011;61850;54.980;73.298;2022-07-29T06:05:09;13.55;;;9.65;;
73569;SDS011;61850;54.980;73.298;2022-07-29T06:07:37;12.98;;;9.27;;
73569;SDS011;61850;54.980;73.298;2022-07-29T06:10:03;14.32;;;10.05;;
73569;SDS011;61850;54.980;73.298;2022-07-29T06:12:30;15.07;;;9.95;;
73569;SDS011;61850;54.980;73.298;2022-07-29T06:15:07;13.40;;;9.80;;
73569;SDS011;61850;54.980;73.298;2022-07-29T06:29:45;14.38;;;9.02;;
73569;SDS011;61850;54.980;73.298;2022-07-29T06:32:22;13.23;;;9.25;;
73569;SDS011;61850;54.980;73.298;2022-07-29T06:34:49;11.75;;;9.40;;
73569;SDS011;61850;54.980;73.298;2022-07-29T07:15:08;13.43;;;8.40;;
73569;SDS011;61850;54.980;73.298;2022-07-29T07:17:35;16.08;;;9.45;;
73569;SDS011;61850;54.980;73.298;2022-07-29T07:20:04;12.57;;;8.38;;
73569;SDS011;61850;54.980;73.298;2022-07-29T07:22:32;12.90;;;8.70;;
73569;SDS011;61850;54.980;73.298;2022-07-29T07:25:08;12.88;;;8.88;;
73569;SDS011;61850;54.980;73.298;2022-07-29T07:27:46;17.08;;;8.98;;
73569;SDS011;61850;54.980;73.298;2022-07-29T07:30:13;12.55;;;8.65;;
73569;SDS011;61850;54.980;73.298;2022-07-29T07:32:49;13.82;;;8.85;;
73569;SDS011;61850;54.980;73.298;2022-07-29T07:35:16;14.38;;;8.75;;
73569;SDS011;61850;54.980;73.298;2022-07-29T07:37:47;14.45;;;9.55;;
73569;SDS011;61850;54.980;73.298;2022-07-29T07:40:19;13.45;;;8.90;;
73569;SDS011;61850;54.980;73.298;2022-07-29T07:42:46;12.35;;;8.35;;
73569;SDS011;61850;54.980;73.298;2022-07-29T07:45:12;13.07;;;9.40;;
73569;SDS011;61850;54.980;73.298;2022-07-29T07:47:48;13.38;;;9.15;;
73569;SDS011;61850;54.980;73.298;2022-07-29T07:50:15;13.65;;;8.50;;
73569;SDS011;61850;54.980;73.298;2022-07-29T07:52:47;12.27;;;8.93;;
73569;SDS011;61850;54.980;73.298;2022-07-29T07:55:18;14.68;;;8.85;;
73569;SDS011;61850;54.980;73.298;2022-07-29T07:57:55;10.85;;;7.97;;
73569;SDS011;61850;54.980;73.298;2022-07-29T08:00:22;13.70;;;9.07;;
73569;SDS011;61850;54.980;73.298;2022-07-29T08:02:48;11.68;;;8.65;;
73569;SDS011;61850;54.980;73.298;2022-07-29T08:23:37;10.37;;;8.30;;
73569;SDS011;61850;54.980;73.298;2022-07-29T08:26:05;10.18;;;7.85;;
73569;SDS011;61850;54.980;73.298;2022-07-29T08:28:39;12.13;;;7.90;;
73569;SDS011;61850;54.980;73.298;2022-07-29T08:34:14;12.48;;;7.85;;
73569;SDS011;61850;54.980;73.298;2022-07-29T08:36:41;9.23;;;7.60;;
73569;SDS011;61850;54.980;73.298;2022-07-29T08:39:17;10.18;;;6.97;;
73569;SDS011;61850;54.980;73.298;2022-07-29T08:41:49;11.30;;;7.88;;
73569;SDS011;61850;54.980;73.298;2022-07-29T09:14:38;14.45;;;8.38;;
73569;SDS011;61850;54.980;73.298;2022-07-29T09:17:04;10.07;;;7.90;;
73569;SDS011;61850;54.980;73.298;2022-07-29T09:19:35;11.75;;;8.10;;
73569;SDS011;61850;54.980;73.298;2022-07-29T09:22:11;12.77;;;8.05;;
73569;SDS011;61850;54.980;73.298;2022-07-29T09:24:38;12.07;;;7.85;;
73569;SDS011;61850;54.980;73.298;2022-07-29T09:27:12;11.90;;;8.13;;
73569;SDS011;61850;54.980;73.298;2022-07-29T09:32:59;12.30;;;7.80;;
73569;SDS011;61850;54.980;73.298;2022-07-29T09:36:05;14.07;;;8.18;;
73569;SDS011;61850;54.980;73.298;2022-07-29T09:38:33;9.60;;;8.00;;
73569;SDS011;61850;54.980;73.298;2022-07-29T09:41:05;8.35;;;7.28;;
73569;SDS011;61850;54.980;73.298;2022-07-29T09:43:35;13.48;;;8.27;;
73569;SDS011;61850;54.980;73.298;2022-07-29T09:46:10;11.20;;;7.82;;
73569;SDS011;61850;54.980;73.298;2022-07-29T09:48:40;11.68;;;8.02;;
73569;SDS011;61850;54.980;73.298;2022-07-29T09:51:16;10.65;;;7.88;;
73569;SDS011;61850;54.980;73.298;2022-07-29T09:56:49;14.13;;;8.60;;
73569;SDS011;61850;54.980;73.298;2022-07-29T09:59:21;12.60;;;8.18;;
73569;SDS011;61850;54.980;73.298;2022-07-29T10:02:01;12.65;;;7.60;;
73569;SDS011;61850;54.980;73.298;2022-07-29T10:04:41;12.68;;;7.50;;
73569;SDS011;61850;54.980;73.298;2022-07-29T10:25:39;10.32;;;8.27;;
73569;SDS011;61850;54.980;73.298;2022-07-29T11:20:33;10.48;;;7.82;;
73569;SDS011;61850;54.980;73.298;2022-07-29T11:24:04;12.25;;;8.15;;
73569;SDS011;61850;54.980;73.298;2022-07-29T11:29:48;10.52;;;7.38;;
73569;SDS011;61850;54.980;73.298;2022-07-29T11:32:47;11.55;;;7.45;;
73569;SDS011;61850;54.980;73.298;2022-07-29T12:09:23;10.90;;;6.60;;
73569;SDS011;61850;54.980;73.298;2022-07-29T12:11:56;8.77;;;6.97;;
73569;SDS011;61850;54.980;73.298;2022-07-29T12:18:13;9.80;;;6.75;;
73569;SDS011;61850;54.980;73.298;2022-07-29T12:20:44;9.68;;;6.00;;
73569;SDS011;61850;54.980;73.298;2022-07-29T12:23:11;9.57;;;6.60;;
73569;SDS011;61850;54.980;73.298;2022-07-29T12:25:38;11.18;;;6.32;;
73569;SDS011;61850;54.980;73.298;2022-07-29T12:28:07;10.25;;;6.22;;
73569;SDS011;61850;54.980;73.298;2022-07-29T12:30:39;10.88;;;6.57;;
73569;SDS011;61850;54.980;73.298;2022-07-29T12:33:16;8.52;;;6.47;;
73569;SDS011;61850;54.980;73.298;2022-07-29T12:51:00;8.43;;;5.80;;
73569;SDS011;61850;54.980;73.298;2022-07-29T13:02:21;8.98;;;5.93;;
73569;SDS011;61850;54.980;73.298;2022-07-29T13:04:56;8.95;;;5.47;;
73569;SDS011;61850;54.980;73.298;2022-07-29T13:07:28;10.55;;;5.90;;
73569;SDS011;61850;54.980;73.298;2022-07-29T13:10:18;10.15;;;5.80;;
73569;SDS011;61850;54.980;73.298;2022-07-29T13:16:05;9.57;;;5.07;;
73569;SDS011;61850;54.980;73.298;2022-07-29T13:22:09;9.77;;;5.30;;
73569;SDS011;61850;54.980;73.298;2022-07-29T13:27:37;10.57;;;5.35;;
73569;SDS011;61850;54.980;73.298;2022-07-29T13:30:10;9.10;;;5.43;;
73569;SDS011;61850;54.980;73.298;2022-07-29T13:32:37;8.40;;;5.35;;
73569;SDS011;61850;54.980;73.298;2022-07-29T13:35:05;10.15;;;5.47;;
73569;SDS011;61850;54.980;73.298;2022-07-29T13:37:35;7.57;;;5.13;;
73569;SDS011;61850;54.980;73.298;2022-07-29T13:46:16;9.27;;;5.00;;
73569;SDS011;61850;54.980;73.298;2022-07-29T13:50:08;8.43;;;4.82;;
73569;SDS011;61850;54.980;73.298;2022-07-29T13:58:41;8.40;;;4.80;;
73569;SDS011;61850;54.980;73.298;2022-07-29T14:01:16;8.13;;;5.03;;
73569;SDS011;61850;54.980;73.298;2022-07-29T14:03:43;8.95;;;5.18;;
73569;SDS011;61850;54.980;73.298;2022-07-29T14:06:15;9.70;;;5.15;;
73569;SDS011;61850;54.980;73.298;2022-07-29T14:14:31;10.40;;;5.00;;
73569;SDS011;61850;54.980;73.298;2022-07-29T14:16:58;9.82;;;5.07;;
73569;SDS011;61850;54.980;73.298;2022-07-29T14:19:25;10.88;;;5.15;;
73569;SDS011;61850;54.980;73.298;2022-07-29T14:27:48;7.35;;;4.93;;
73569;SDS011;61850;54.980;73.298;2022-07-29T14:30:25;8.85;;;4.70;;
73569;SDS011;61850;54.980;73.298;2022-07-29T14:32:52;10.55;;;4.57;;
73569;SDS011;61850;54.980;73.298;2022-07-29T14:36:02;8.55;;;4.88;;
73569;SDS011;61850;54.980;73.298;2022-07-29T14:54:37;8.40;;;4.35;;
73569;SDS011;61850;54.980;73.298;2022-07-29T15:00:09;7.80;;;4.00;;
73569;SDS011;61850;54.980;73.298;2022-07-29T15:05:36;8.80;;;5.05;;
73569;SDS011;61850;54.980;73.298;2022-07-29T15:08:02;7.75;;;4.65;;
73569;SDS011;61850;54.980;73.298;2022-07-29T15:13:33;11.80;;;4.20;;
73569;SDS011;61850;54.980;73.298;2022-07-29T15:16:00;7.47;;;4.40;;
73569;SDS011;61850;54.980;73.298;2022-07-29T15:18:39;8.15;;;4.20;;
73569;SDS011;61850;54.980;73.298;2022-07-29T15:21:06;9.10;;;3.70;;
73569;SDS011;61850;54.980;73.298;2022-07-29T15:23:33;11.45;;;4.57;;
73569;SDS011;61850;54.980;73.298;2022-07-29T15:26:03;7.43;;;4.10;;
73569;SDS011;61850;54.980;73.298;2022-07-29T15:28:30;7.28;;;3.75;;
73569;SDS011;61850;54.980;73.298;2022-07-29T15:30:57;7.47;;;4.05;;
73569;SDS011;61850;54.980;73.298;2022-07-29T15:33:23;9.75;;;4.45;;
73569;SDS011;61850;54.980;73.298;2022-07-29T15:35:51;10.15;;;3.92;;
73569;SDS011;61850;54.980;73.298;2022-07-29T15:38:18;5.78;;;3.55;;
73569;SDS011;61850;54.980;73.298;2022-07-29T15:46:57;11.27;;;3.88;;
73569;SDS011;61850;54.980;73.298;2022-07-29T15:49:38;6.25;;;3.67;;
73569;SDS011;61850;54.980;73.298;2022-07-29T15:52:06;5.60;;;3.67;;
73569;SDS011;61850;54.980;73.298;2022-07-29T15:54:35;5.82;;;3.40;;
73569;SDS011;61850;54.980;73.298;2022-07-29T15:57:05;7.65;;;3.83;;
73569;SDS011;61850;54.980;73.298;2022-07-29T15:59:45;6.97;;;3.45;;
73569;SDS011;61850;54.980;73.298;2022-07-29T16:02:11;7.35;;;3.53;;
73569;SDS011;61850;54.980;73.298;2022-07-29T16:04:41;8.38;;;3.70;;
73569;SDS011;61850;54.980;73.298;2022-07-29T16:07:07;8.40;;;4.53;;
73569;SDS011;61850;54.980;73.298;2022-07-29T16:09:39;7.68;;;4.13;;
73569;SDS011;61850;54.980;73.298;2022-07-29T16:12:06;7.55;;;4.53;;
73569;SDS011;61850;54.980;73.298;2022-07-29T16:14:36;6.75;;;3.85;;
73569;SDS011;61850;54.980;73.298;2022-07-29T16:17:02;10.30;;;3.78;;
73569;SDS011;61850;54.980;73.298;2022-07-29T16:19:29;9.43;;;3.75;;
73569;SDS011;61850;54.980;73.298;2022-07-29T16:22:00;7.38;;;4.30;;
73569;SDS011;61850;54.980;73.298;2022-07-29T16:24:32;7.25;;;4.25;;
73569;SDS011;61850;54.980;73.298;2022-07-29T16:26:59;7.63;;;4.25;;
73569;SDS011;61850;54.980;73.298;2022-07-29T16:29:25;5.75;;;4.07;;
73569;SDS011;61850;54.980;73.298;2022-07-29T16:31:51;6.50;;;3.83;;
73569;SDS011;61850;54.980;73.298;2022-07-29T16:34:17;7.47;;;3.90;;
73569;SDS011;61850;54.980;73.298;2022-07-29T16:36:44;6.30;;;4.03;;
73569;SDS011;61850;54.980;73.298;2022-07-29T16:39:20;6.18;;;4.20;;
73569;SDS011;61850;54.980;73.298;2022-07-29T16:41:46;8.70;;;4.28;;
73569;SDS011;61850;54.980;73.298;2022-07-29T16:44:12;7.70;;;3.83;;
73569;SDS011;61850;54.980;73.298;2022-07-29T16:46:50;11.02;;;4.10;;
73569;SDS011;61850;54.980;73.298;2022-07-29T16:49:16;9.50;;;4.00;;
73569;SDS011;61850;54.980;73.298;2022-07-29T16:51:42;10.48;;;4.05;;
73569;SDS011;61850;54.980;73.298;2022-07-29T16:54:09;8.38;;;3.90;;
73569;SDS011;61850;54.980;73.298;2022-07-29T16:56:47;5.13;;;3.75;;
73569;SDS011;61850;54.980;73.298;2022-07-29T16:59:14;7.20;;;4.00;;
73569;SDS011;61850;54.980;73.298;2022-07-29T17:01:41;12.15;;;3.70;;
73569;SDS011;61850;54.980;73.298;2022-07-29T17:04:07;7.30;;;4.13;;
73569;SDS011;61850;54.980;73.298;2022-07-29T17:55:44;6.72;;;3.78;;
73569;SDS011;61850;54.980;73.298;2022-07-29T17:58:24;5.45;;;3.28;;
73569;SDS011;61850;54.980;73.298;2022-07-29T18:00:50;6.13;;;3.60;;
73569;SDS011;61850;54.980;73.298;2022-07-29T18:03:23;5.60;;;3.47;;
73569;SDS011;61850;54.980;73.298;2022-07-29T18:05:49;5.85;;;3.40;;
73569;SDS011;61850;54.980;73.298;2022-07-29T18:08:26;5.30;;;3.17;;
73569;SDS011;61850;54.980;73.298;2022-07-29T18:10:53;6.03;;;3.60;;
73569;SDS011;61850;54.980;73.298;2022-07-29T18:13:19;6.45;;;3.22;;
73569;SDS011;61850;54.980;73.298;2022-07-29T18:15:45;6.57;;;3.65;;
73569;SDS011;61850;54.980;73.298;2022-07-29T18:18:19;7.15;;;3.67;;
73569;SDS011;61850;54.980;73.298;2022-07-29T18:20:45;6.15;;;3.28;;
73569;SDS011;61850;54.980;73.298;2022-07-29T18:23:13;5.50;;;3.47;;
73569;SDS011;61850;54.980;73.298;2022-07-29T18:25:42;6.15;;;3.40;;
73569;SDS011;61850;54.980;73.298;2022-07-29T18:28:16;5.00;;;3.30;;
73569;SDS011;61850;54.980;73.298;2022-07-29T18:30:42;5.15;;;3.30;;
73569;SDS011;61850;54.980;73.298;2022-07-29T18:33:13;5.75;;;3.33;;
73569;SDS011;61850;54.980;73.298;2022-07-29T18:35:50;5.47;;;3.28;;
73569;SDS011;61850;54.980;73.298;2022-07-29T20:21:24;6.45;;;4.00;;
73569;SDS011;61850;54.980;73.298;2022-07-29T20:29:52;12.60;;;4.60;;
73569;SDS011;61850;54.980;73.298;2022-07-29T21:43:39;7.60;;;3.88;;
73569;SDS011;61850;54.980;73.298;2022-07-29T21:46:06;7.63;;;4.40;;
73569;SDS011;61850;54.980;73.298;2022-07-29T21:48:36;6.63;;;4.47;;
73569;SDS011;61850;54.980;73.298;2022-07-29T21:51:03;7.18;;;4.50;;
73569;SDS011;61850;54.980;73.298;2022-07-29T21:53:29;6.55;;;4.30;;
73569;SDS011;61850;54.980;73.298;2022-07-29T21:56:05;7.63;;;4.78;;
73569;SDS011;61850;54.980;73.298;2022-07-29T21:58:41;6.38;;;4.40;;
73569;SDS011;61850;54.980;73.298;2022-07-29T22:01:08;9.27;;;4.50;;
73569;SDS011;61850;54.980;73.298;2022-07-29T22:03:44;9.30;;;4.53;;
73569;SDS011;61850;54.980;73.298;2022-07-29T22:06:10;7.95;;;4.45;;
73569;SDS011;61850;54.980;73.298;2022-07-29T22:08:37;9.38;;;4.47;;
73569;SDS011;61850;54.980;73.298;2022-07-29T22:11:04;5.80;;;4.25;;
73569;SDS011;61850;54.980;73.298;2022-07-29T23:07:23;9.52;;;5.20;;
73569;SDS011;61850;54.980;73.298;2022-07-29T23:09:59;9.60;;;5.00;;
73569;SDS011;61850;54.980;73.298;2022-07-29T23:12:32;8.07;;;5.40;;
73569;SDS011;61850;54.980;73.298;2022-07-29T23:15:04;7.10;;;5.03;;
